Ridge Spring, SC (29129)

10:54 PM EDT on March 27, 2017 (GMT -0400)
Hwy 1 | | Change Station

Elev 600 ft 33.84 °N, 81.61 °W | Updated 23 seconds ago

Partly Cloudy
Partly Cloudy
68.0 °F
Feels Like 68.0 °F
N
4.0
Wind Variable Wind from SE

Today
High -- | Low -- °F
--% Chance of Precip.
Yesterday
High -- | Low -- °F
Precip. -- in
Pressure 30.03 in
Visibility 10.0 miles
Clouds Scattered Clouds 6000 ft
Dew Point 63 °F
Humidity 85%
Rainfall 0.46 in
Snow Depth Not available.
7:20 AM 7:43 PM
New Moon, 0% visible
METAR KAIK 280235Z AUTO 15008KT 10SM SCT060 20/15 A3003 RMK AO2
Pressure 30.03 in
Visibility 10.0 miles
Clouds Scattered Clouds 6000 ft
Dew Point 63 °F
Humidity 85%
Rainfall 0.46 in
Snow Depth Not available.
7:20 AM 7:43 PM
New Moon, 0% visible
METAR KAIK 280235Z AUTO 15008KT 10SM SCT060 20/15 A3003 RMK AO2

Get Severe Weather Alerts

Thanks for signing up!

Be on the lookout for a verification email in your inbox.

You'll start receiving the daily forecast at 8 AM.

×

10-Day Weather Forecast

Almanac

Astronomy

Mar. 27, 2017 Rise Set
Actual Time
Civil Twilight
Nautical Twilight
Astronomical Twilight
Moon
Length of Visible Light
Length of Day
Tomorrow will be .
, % of the Moon is Illuminated

Today's Extremes

State Highs State Lows

Community

WunderPhotos

Upload Photos

1,962,540 photos uploaded!

WunderBlog® & News

Nearby

Air Quality

  Air Quality AQ Index Pollutant
Not available.

Snow Depth

Station Depth Elevation

Earthquake Activity

City Distance Mag. Time & Date
Minimum magnitude displayed is 2.5.

Earthquake Activity

City Distance Mag. Time & Date
Minimum magnitude displayed is 2.5.

Coastal Water Temperatures

Place Temperature

Stations

Nearby Weather Stations

Station Location Temp. Windchill Dew Point Humidity Wind Precip. Elev Updated Type
                   

Watches & Warnings

There are currently no watches in effect.